sensor_id;sensor_type;location;lat;lon;timestamp;temperature;humidity
28767;DHT22;15921;52.034;20.650;2022-11-20T00:01:09;-3.80;99.90
28767;DHT22;15921;52.034;20.650;2022-11-20T00:03:43;-3.70;99.90
28767;DHT22;15921;52.034;20.650;2022-11-20T00:06:14;-3.60;99.90
28767;DHT22;15921;52.034;20.650;2022-11-20T00:08:40;-3.60;99.90
28767;DHT22;15921;52.034;20.650;2022-11-20T00:11:12;-3.50;99.90
28767;DHT22;15921;52.034;20.650;2022-11-20T00:13:38;-3.50;99.90
28767;DHT22;15921;52.034;20.650;2022-11-20T00:16:06;-3.50;99.90
28767;DHT22;15921;52.034;20.650;2022-11-20T00:18:33;-3.40;99.90
28767;DHT22;15921;52.034;20.650;2022-11-20T00:21:09;-3.40;99.90
28767;DHT22;15921;52.034;20.650;2022-11-20T00:23:35;-3.30;99.90
28767;DHT22;15921;52.034;20.650;2022-11-20T00:26:08;-3.20;99.90
28767;DHT22;15921;52.034;20.650;2022-11-20T00:28:34;-3.20;99.90
28767;DHT22;15921;52.034;20.650;2022-11-20T00:31:08;-3.10;99.90
28767;DHT22;15921;52.034;20.650;2022-11-20T00:33:34;-3.10;99.90
28767;DHT22;15921;52.034;20.650;2022-11-20T00:36:05;-3.10;99.90
28767;DHT22;15921;52.034;20.650;2022-11-20T00:38:32;-3.00;99.90
28767;DHT22;15921;52.034;20.650;2022-11-20T00:40:59;-3.00;99.90
28767;DHT22;15921;52.034;20.650;2022-11-20T00:43:26;-3.00;99.90
28767;DHT22;15921;52.034;20.650;2022-11-20T00:46:13;-3.00;99.90
28767;DHT22;15921;52.034;20.650;2022-11-20T00:48:39;-3.00;99.90
28767;DHT22;15921;52.034;20.650;2022-11-20T00:51:05;-3.00;99.90
28767;DHT22;15921;52.034;20.650;2022-11-20T00:53:30;-3.00;99.90
28767;DHT22;15921;52.034;20.650;2022-11-20T00:55:58;-3.00;99.90
28767;DHT22;15921;52.034;20.650;2022-11-20T00:58:28;-3.10;99.90
28767;DHT22;15921;52.034;20.650;2022-11-20T01:03:42;-3.10;99.90
28767;DHT22;15921;52.034;20.650;2022-11-20T01:06:11;-3.10;99.90
28767;DHT22;15921;52.034;20.650;2022-11-20T01:08:36;-3.20;99.90
28767;DHT22;15921;52.034;20.650;2022-11-20T01:11:14;-3.20;99.90
28767;DHT22;15921;52.034;20.650;2022-11-20T01:13:41;-3.20;99.90
28767;DHT22;15921;52.034;20.650;2022-11-20T01:16:53;-3.20;99.90
28767;DHT22;15921;52.034;20.650;2022-11-20T01:19:02;-3.20;99.90
28767;DHT22;15921;52.034;20.650;2022-11-20T01:21:31;-3.10;99.90
28767;DHT22;15921;52.034;20.650;2022-11-20T01:23:58;-3.10;99.90
28767;DHT22;15921;52.034;20.650;2022-11-20T01:26:26;-3.10;99.90
28767;DHT22;15921;52.034;20.650;2022-11-20T01:28:53;-3.10;99.90
28767;DHT22;15921;52.034;20.650;2022-11-20T01:31:30;-3.20;99.90
28767;DHT22;15921;52.034;20.650;2022-11-20T01:33:58;-3.20;99.90
28767;DHT22;15921;52.034;20.650;2022-11-20T01:36:26;-3.20;99.90
28767;DHT22;15921;52.034;20.650;2022-11-20T01:38:56;-3.20;99.90
28767;DHT22;15921;52.034;20.650;2022-11-20T01:41:23;-3.20;99.90
28767;DHT22;15921;52.034;20.650;2022-11-20T01:44:48;-3.20;99.90
28767;DHT22;15921;52.034;20.650;2022-11-20T01:47:39;-3.20;99.90
28767;DHT22;15921;52.034;20.650;2022-11-20T01:50:22;-3.20;99.90
28767;DHT22;15921;52.034;20.650;2022-11-20T01:52:55;-3.20;99.90
28767;DHT22;15921;52.034;20.650;2022-11-20T01:55:27;-3.20;99.90
28767;DHT22;15921;52.034;20.650;2022-11-20T01:57:54;-3.20;99.90
28767;DHT22;15921;52.034;20.650;2022-11-20T02:00:21;-3.20;99.90
28767;DHT22;15921;52.034;20.650;2022-11-20T02:02:51;-3.20;99.90
28767;DHT22;15921;52.034;20.650;2022-11-20T02:05:23;-3.20;99.90
28767;DHT22;15921;52.034;20.650;2022-11-20T02:07:50;-3.20;99.90
28767;DHT22;15921;52.034;20.650;2022-11-20T02:10:16;-3.20;99.90
28767;DHT22;15921;52.034;20.650;2022-11-20T02:12:42;-3.20;99.90
28767;DHT22;15921;52.034;20.650;2022-11-20T02:15:26;-3.20;99.90
28767;DHT22;15921;52.034;20.650;2022-11-20T02:17:53;-3.20;99.90
28767;DHT22;15921;52.034;20.650;2022-11-20T02:20:19;-3.20;99.90
28767;DHT22;15921;52.034;20.650;2022-11-20T02:23:08;-3.30;99.90
28767;DHT22;15921;52.034;20.650;2022-11-20T02:25:37;-3.30;99.90
28767;DHT22;15921;52.034;20.650;2022-11-20T02:28:04;-3.30;99.90
28767;DHT22;15921;52.034;20.650;2022-11-20T02:30:29;-3.50;99.90
28767;DHT22;15921;52.034;20.650;2022-11-20T02:32:55;-3.50;99.90
28767;DHT22;15921;52.034;20.650;2022-11-20T02:37:52;-3.50;99.90
28767;DHT22;15921;52.034;20.650;2022-11-20T02:40:19;-3.50;99.90
28767;DHT22;15921;52.034;20.650;2022-11-20T02:42:44;-3.50;99.90
28767;DHT22;15921;52.034;20.650;2022-11-20T02:45:10;-3.50;99.90
28767;DHT22;15921;52.034;20.650;2022-11-20T02:47:36;-3.50;99.90
28767;DHT22;15921;52.034;20.650;2022-11-20T02:50:02;-3.40;99.90
28767;DHT22;15921;52.034;20.650;2022-11-20T02:52:29;-3.40;99.90
28767;DHT22;15921;52.034;20.650;2022-11-20T02:54:55;-3.40;99.90
28767;DHT22;15921;52.034;20.650;2022-11-20T02:57:20;-3.50;99.90
28767;DHT22;15921;52.034;20.650;2022-11-20T02:59:46;-3.60;99.90
28767;DHT22;15921;52.034;20.650;2022-11-20T03:02:11;-3.60;99.90
28767;DHT22;15921;52.034;20.650;2022-11-20T03:04:37;-3.70;99.90
28767;DHT22;15921;52.034;20.650;2022-11-20T03:07:04;-3.80;99.90
28767;DHT22;15921;52.034;20.650;2022-11-20T03:09:30;-3.90;99.90
28767;DHT22;15921;52.034;20.650;2022-11-20T03:11:56;-3.90;99.90
28767;DHT22;15921;52.034;20.650;2022-11-20T03:14:21;-4.00;99.90
28767;DHT22;15921;52.034;20.650;2022-11-20T03:16:47;-4.00;99.90
28767;DHT22;15921;52.034;20.650;2022-11-20T03:19:13;-4.10;99.90
28767;DHT22;15921;52.034;20.650;2022-11-20T03:21:39;-4.10;99.90
28767;DHT22;15921;52.034;20.650;2022-11-20T03:24:05;-4.20;99.90
28767;DHT22;15921;52.034;20.650;2022-11-20T03:26:31;-4.10;99.90
28767;DHT22;15921;52.034;20.650;2022-11-20T03:28:59;-4.10;99.90
28767;DHT22;15921;52.034;20.650;2022-11-20T03:31:28;-4.10;99.90
28767;DHT22;15921;52.034;20.650;2022-11-20T03:33:54;-4.20;99.90
28767;DHT22;15921;52.034;20.650;2022-11-20T03:36:21;-4.20;99.90
28767;DHT22;15921;52.034;20.650;2022-11-20T03:38:47;-4.20;99.90
28767;DHT22;15921;52.034;20.650;2022-11-20T03:41:18;-4.30;99.90
28767;DHT22;15921;52.034;20.650;2022-11-20T03:43:59;-4.30;99.90
28767;DHT22;15921;52.034;20.650;2022-11-20T03:46:25;-4.30;99.90
28767;DHT22;15921;52.034;20.650;2022-11-20T03:48:51;-4.40;99.90
28767;DHT22;15921;52.034;20.650;2022-11-20T03:53:48;-4.40;99.90
28767;DHT22;15921;52.034;20.650;2022-11-20T03:56:16;-4.40;99.90
28767;DHT22;15921;52.034;20.650;2022-11-20T03:58:43;-4.50;99.90
28767;DHT22;15921;52.034;20.650;2022-11-20T04:01:11;-4.50;99.90
28767;DHT22;15921;52.034;20.650;2022-11-20T04:03:39;-4.50;99.90
28767;DHT22;15921;52.034;20.650;2022-11-20T04:06:11;-4.50;99.90
28767;DHT22;15921;52.034;20.650;2022-11-20T04:08:37;-4.50;99.90
28767;DHT22;15921;52.034;20.650;2022-11-20T04:13:38;-4.50;99.90
28767;DHT22;15921;52.034;20.650;2022-11-20T04:16:05;-4.50;99.90
28767;DHT22;15921;52.034;20.650;2022-11-20T04:18:31;-4.50;99.90
28767;DHT22;15921;52.034;20.650;2022-11-20T04:20:57;-4.50;99.90
28767;DHT22;15921;52.034;20.650;2022-11-20T04:23:23;-4.60;99.90
28767;DHT22;15921;52.034;20.650;2022-11-20T04:25:49;-4.60;99.90
28767;DHT22;15921;52.034;20.650;2022-11-20T04:28:14;-4.70;99.90
28767;DHT22;15921;52.034;20.650;2022-11-20T04:30:40;-4.70;99.90
28767;DHT22;15921;52.034;20.650;2022-11-20T04:33:06;-4.70;99.90
28767;DHT22;15921;52.034;20.650;2022-11-20T04:35:34;-4.70;99.90
28767;DHT22;15921;52.034;20.650;2022-11-20T04:38:00;-4.70;99.90
28767;DHT22;15921;52.034;20.650;2022-11-20T04:40:25;-4.70;99.90
28767;DHT22;15921;52.034;20.650;2022-11-20T04:42:51;-4.70;99.90
28767;DHT22;15921;52.034;20.650;2022-11-20T04:45:16;-4.70;99.90
28767;DHT22;15921;52.034;20.650;2022-11-20T04:47:42;-4.70;99.90
28767;DHT22;15921;52.034;20.650;2022-11-20T04:50:08;-4.70;99.90
28767;DHT22;15921;52.034;20.650;2022-11-20T04:52:34;-4.70;99.90
28767;DHT22;15921;52.034;20.650;2022-11-20T04:54:59;-4.80;99.90
28767;DHT22;15921;52.034;20.650;2022-11-20T04:57:25;-4.70;99.90
28767;DHT22;15921;52.034;20.650;2022-11-20T04:59:50;-4.80;99.90
28767;DHT22;15921;52.034;20.650;2022-11-20T05:02:16;-4.80;99.90
28767;DHT22;15921;52.034;20.650;2022-11-20T05:04:42;-4.80;99.90
28767;DHT22;15921;52.034;20.650;2022-11-20T05:07:07;-4.80;99.90
28767;DHT22;15921;52.034;20.650;2022-11-20T05:09:33;-4.80;99.90
28767;DHT22;15921;52.034;20.650;2022-11-20T05:11:58;-4.80;99.90
28767;DHT22;15921;52.034;20.650;2022-11-20T05:14:24;-4.80;99.90
28767;DHT22;15921;52.034;20.650;2022-11-20T05:16:50;-4.90;99.90
28767;DHT22;15921;52.034;20.650;2022-11-20T05:19:15;-4.90;99.90
28767;DHT22;15921;52.034;20.650;2022-11-20T05:21:41;-4.90;99.90
28767;DHT22;15921;52.034;20.650;2022-11-20T05:24:06;-4.90;99.90
28767;DHT22;15921;52.034;20.650;2022-11-20T05:26:32;-4.90;99.90
28767;DHT22;15921;52.034;20.650;2022-11-20T05:28:58;-5.00;99.90
28767;DHT22;15921;52.034;20.650;2022-11-20T05:31:24;-5.00;99.90
28767;DHT22;15921;52.034;20.650;2022-11-20T05:33:50;-5.00;99.90
28767;DHT22;15921;52.034;20.650;2022-11-20T05:36:17;-5.00;99.90
28767;DHT22;15921;52.034;20.650;2022-11-20T05:38:43;-5.00;99.90
28767;DHT22;15921;52.034;20.650;2022-11-20T05:41:17;-5.10;99.90
28767;DHT22;15921;52.034;20.650;2022-11-20T05:43:45;-5.10;99.90
28767;DHT22;15921;52.034;20.650;2022-11-20T05:46:13;-5.10;99.90
28767;DHT22;15921;52.034;20.650;2022-11-20T05:48:40;-5.10;99.90
28767;DHT22;15921;52.034;20.650;2022-11-20T05:51:08;-5.10;99.90
28767;DHT22;15921;52.034;20.650;2022-11-20T05:53:35;-5.20;99.90
28767;DHT22;15921;52.034;20.650;2022-11-20T05:56:21;-5.20;99.90
28767;DHT22;15921;52.034;20.650;2022-11-20T05:58:47;-5.20;99.90
28767;DHT22;15921;52.034;20.650;2022-11-20T06:01:14;-5.20;99.90
28767;DHT22;15921;52.034;20.650;2022-11-20T06:03:41;-5.20;99.90
28767;DHT22;15921;52.034;20.650;2022-11-20T06:06:08;-5.20;99.90
28767;DHT22;15921;52.034;20.650;2022-11-20T06:08:34;-5.20;99.90
28767;DHT22;15921;52.034;20.650;2022-11-20T06:11:04;-5.20;99.90
28767;DHT22;15921;52.034;20.650;2022-11-20T06:13:30;-5.20;99.90
28767;DHT22;15921;52.034;20.650;2022-11-20T06:15:56;-5.20;99.90
28767;DHT22;15921;52.034;20.650;2022-11-20T06:18:22;-5.20;99.90
28767;DHT22;15921;52.034;20.650;2022-11-20T06:20:47;-5.20;99.90
28767;DHT22;15921;52.034;20.650;2022-11-20T06:23:13;-5.20;99.90
28767;DHT22;15921;52.034;20.650;2022-11-20T06:25:42;-5.20;99.90
28767;DHT22;15921;52.034;20.650;2022-11-20T06:28:08;-5.20;99.90
28767;DHT22;15921;52.034;20.650;2022-11-20T06:30:35;-5.20;99.90
28767;DHT22;15921;52.034;20.650;2022-11-20T06:33:01;-5.20;99.90
28767;DHT22;15921;52.034;20.650;2022-11-20T06:35:26;-5.20;99.90
28767;DHT22;15921;52.034;20.650;2022-11-20T06:37:52;-5.10;99.90
28767;DHT22;15921;52.034;20.650;2022-11-20T06:40:18;-5.10;99.90
28767;DHT22;15921;52.034;20.650;2022-11-20T06:42:43;-5.10;99.90
28767;DHT22;15921;52.034;20.650;2022-11-20T06:45:09;-5.10;99.90
28767;DHT22;15921;52.034;20.650;2022-11-20T06:47:35;-5.00;99.90
28767;DHT22;15921;52.034;20.650;2022-11-20T06:50:01;-5.00;99.90
28767;DHT22;15921;52.034;20.650;2022-11-20T06:52:26;-4.90;99.90
28767;DHT22;15921;52.034;20.650;2022-11-20T06:54:52;-4.90;99.90
28767;DHT22;15921;52.034;20.650;2022-11-20T06:57:17;-4.90;99.90
28767;DHT22;15921;52.034;20.650;2022-11-20T06:59:43;-4.80;99.90
28767;DHT22;15921;52.034;20.650;2022-11-20T07:02:12;-4.80;99.90
28767;DHT22;15921;52.034;20.650;2022-11-20T07:04:38;-4.70;99.90
28767;DHT22;15921;52.034;20.650;2022-11-20T07:07:04;-4.70;99.90
28767;DHT22;15921;52.034;20.650;2022-11-20T07:09:29;-4.60;99.90
28767;DHT22;15921;52.034;20.650;2022-11-20T07:11:55;-4.60;99.90
28767;DHT22;15921;52.034;20.650;2022-11-20T07:14:20;-4.50;99.90
28767;DHT22;15921;52.034;20.650;2022-11-20T07:16:46;-4.40;99.90
28767;DHT22;15921;52.034;20.650;2022-11-20T07:19:11;-4.40;99.90
28767;DHT22;15921;52.034;20.650;2022-11-20T07:21:37;-4.30;99.90
28767;DHT22;15921;52.034;20.650;2022-11-20T07:24:03;-4.20;99.90
28767;DHT22;15921;52.034;20.650;2022-11-20T07:26:29;-4.10;99.90
28767;DHT22;15921;52.034;20.650;2022-11-20T07:28:54;-4.00;99.90
28767;DHT22;15921;52.034;20.650;2022-11-20T07:31:20;-4.00;99.90
28767;DHT22;15921;52.034;20.650;2022-11-20T07:33:46;-3.90;99.90
28767;DHT22;15921;52.034;20.650;2022-11-20T07:36:12;-3.90;99.90
28767;DHT22;15921;52.034;20.650;2022-11-20T07:38:38;-3.80;99.90
28767;DHT22;15921;52.034;20.650;2022-11-20T07:41:04;-3.70;99.90
28767;DHT22;15921;52.034;20.650;2022-11-20T07:43:30;-3.60;99.90
28767;DHT22;15921;52.034;20.650;2022-11-20T07:45:57;-3.50;99.90
28767;DHT22;15921;52.034;20.650;2022-11-20T07:48:24;-3.40;99.90
28767;DHT22;15921;52.034;20.650;2022-11-20T07:50:52;-3.40;99.90
28767;DHT22;15921;52.034;20.650;2022-11-20T07:53:18;-3.20;99.90
28767;DHT22;15921;52.034;20.650;2022-11-20T07:55:46;-3.10;99.90
28767;DHT22;15921;52.034;20.650;2022-11-20T07:58:12;-3.00;99.90
28767;DHT22;15921;52.034;20.650;2022-11-20T08:00:37;-2.90;99.90
28767;DHT22;15921;52.034;20.650;2022-11-20T08:03:04;-2.80;99.90
28767;DHT22;15921;52.034;20.650;2022-11-20T08:05:29;-2.70;99.90
28767;DHT22;15921;52.034;20.650;2022-11-20T08:07:55;-2.50;99.90
28767;DHT22;15921;52.034;20.650;2022-11-20T08:10:21;-2.40;99.90
28767;DHT22;15921;52.034;20.650;2022-11-20T08:12:51;-2.30;99.90
28767;DHT22;15921;52.034;20.650;2022-11-20T08:15:37;-2.10;99.90
28767;DHT22;15921;52.034;20.650;2022-11-20T08:20:31;-1.80;99.90
28767;DHT22;15921;52.034;20.650;2022-11-20T08:23:01;-1.70;99.90
28767;DHT22;15921;52.034;20.650;2022-11-20T08:25:28;-1.70;99.90
28767;DHT22;15921;52.034;20.650;2022-11-20T08:27:59;-1.50;99.90
28767;DHT22;15921;52.034;20.650;2022-11-20T08:30:26;-1.40;99.90
28767;DHT22;15921;52.034;20.650;2022-11-20T08:32:52;-1.40;99.90
28767;DHT22;15921;52.034;20.650;2022-11-20T08:35:18;-1.30;99.90
28767;DHT22;15921;52.034;20.650;2022-11-20T08:37:49;-1.30;99.90
28767;DHT22;15921;52.034;20.650;2022-11-20T08:40:15;-1.20;99.90
28767;DHT22;15921;52.034;20.650;2022-11-20T08:42:48;-1.20;99.90
28767;DHT22;15921;52.034;20.650;2022-11-20T08:45:14;-1.10;99.90
28767;DHT22;15921;52.034;20.650;2022-11-20T08:47:39;-1.00;99.90
28767;DHT22;15921;52.034;20.650;2022-11-20T08:50:06;-0.90;99.90
28767;DHT22;15921;52.034;20.650;2022-11-20T08:52:32;-0.90;99.90
28767;DHT22;15921;52.034;20.650;2022-11-20T08:54:58;-0.80;99.90
28767;DHT22;15921;52.034;20.650;2022-11-20T08:57:23;-0.70;99.90
28767;DHT22;15921;52.034;20.650;2022-11-20T08:59:49;-0.70;99.90
28767;DHT22;15921;52.034;20.650;2022-11-20T09:02:15;-0.60;99.90
28767;DHT22;15921;52.034;20.650;2022-11-20T09:04:40;-0.60;99.90
28767;DHT22;15921;52.034;20.650;2022-11-20T09:07:06;-0.50;99.90
28767;DHT22;15921;52.034;20.650;2022-11-20T09:09:32;-0.40;99.90
28767;DHT22;15921;52.034;20.650;2022-11-20T09:11:58;-0.30;99.90
28767;DHT22;15921;52.034;20.650;2022-11-20T09:14:23;-0.20;99.90
28767;DHT22;15921;52.034;20.650;2022-11-20T09:16:54;-0.10;99.90
28767;DHT22;15921;52.034;20.650;2022-11-20T09:19:20;-0.10;99.90
28767;DHT22;15921;52.034;20.650;2022-11-20T09:21:46;0.00;99.90
28767;DHT22;15921;52.034;20.650;2022-11-20T09:24:11;0.00;99.90
28767;DHT22;15921;52.034;20.650;2022-11-20T09:26:37;0.10;99.90
28767;DHT22;15921;52.034;20.650;2022-11-20T09:29:02;0.10;99.90
28767;DHT22;15921;52.034;20.650;2022-11-20T09:31:28;0.10;99.90
28767;DHT22;15921;52.034;20.650;2022-11-20T09:33:54;0.20;99.90
28767;DHT22;15921;52.034;20.650;2022-11-20T09:36:19;0.30;99.90
28767;DHT22;15921;52.034;20.650;2022-11-20T09:38:46;0.40;99.90
28767;DHT22;15921;52.034;20.650;2022-11-20T09:41:43;0.40;99.90
28767;DHT22;15921;52.034;20.650;2022-11-20T09:44:45;0.50;99.90
28767;DHT22;15921;52.034;20.650;2022-11-20T09:47:48;0.60;99.90
28767;DHT22;15921;52.034;20.650;2022-11-20T09:50:59;0.70;99.90
28767;DHT22;15921;52.034;20.650;2022-11-20T09:53:40;0.80;99.90
28767;DHT22;15921;52.034;20.650;2022-11-20T09:56:11;0.90;99.90
28767;DHT22;15921;52.034;20.650;2022-11-20T09:58:44;0.90;99.90
28767;DHT22;15921;52.034;20.650;2022-11-20T10:01:18;1.00;99.90
28767;DHT22;15921;52.034;20.650;2022-11-20T10:06:17;1.10;99.90
28767;DHT22;15921;52.034;20.650;2022-11-20T10:11:48;1.20;99.90
28767;DHT22;15921;52.034;20.650;2022-11-20T10:14:42;1.20;99.90
28767;DHT22;15921;52.034;20.650;2022-11-20T10:20:25;1.40;99.90
28767;DHT22;15921;52.034;20.650;2022-11-20T10:29:06;1.60;99.30
28767;DHT22;15921;52.034;20.650;2022-11-20T10:31:40;1.60;98.70
28767;DHT22;15921;52.034;20.650;2022-11-20T10:36:56;1.80;97.80
28767;DHT22;15921;52.034;20.650;2022-11-20T10:39:25;1.90;97.60
28767;DHT22;15921;52.034;20.650;2022-11-20T10:41:54;1.90;97.30
28767;DHT22;15921;52.034;20.650;2022-11-20T10:44:22;2.00;97.20
28767;DHT22;15921;52.034;20.650;2022-11-20T10:47:13;2.10;97.20
28767;DHT22;15921;52.034;20.650;2022-11-20T10:49:42;2.20;96.80
28767;DHT22;15921;52.034;20.650;2022-11-20T10:52:20;2.30;96.40
28767;DHT22;15921;52.034;20.650;2022-11-20T10:58:10;2.50;95.80
28767;DHT22;15921;52.034;20.650;2022-11-20T11:00:38;2.60;95.30
28767;DHT22;15921;52.034;20.650;2022-11-20T11:03:22;2.60;95.20
28767;DHT22;15921;52.034;20.650;2022-11-20T11:05:58;2.80;94.90
28767;DHT22;15921;52.034;20.650;2022-11-20T11:08:28;2.80;94.20
28767;DHT22;15921;52.034;20.650;2022-11-20T11:11:02;2.80;93.50
28767;DHT22;15921;52.034;20.650;2022-11-20T11:13:32;2.70;93.10
28767;DHT22;15921;52.034;20.650;2022-11-20T11:15:58;2.70;92.80
28767;DHT22;15921;52.034;20.650;2022-11-20T11:18:26;2.70;92.80
28767;DHT22;15921;52.034;20.650;2022-11-20T11:20:53;2.80;92.70
28767;DHT22;15921;52.034;20.650;2022-11-20T11:23:48;2.90;92.50
28767;DHT22;15921;52.034;20.650;2022-11-20T11:26:23;3.00;91.70
28767;DHT22;15921;52.034;20.650;2022-11-20T11:29:01;3.20;91.90
28767;DHT22;15921;52.034;20.650;2022-11-20T11:31:32;3.70;91.70
28767;DHT22;15921;52.034;20.650;2022-11-20T11:34:15;5.00;90.60
28767;DHT22;15921;52.034;20.650;2022-11-20T11:36:42;6.50;86.10
28767;DHT22;15921;52.034;20.650;2022-11-20T11:39:17;7.80;82.10
28767;DHT22;15921;52.034;20.650;2022-11-20T11:41:45;8.90;77.50
28767;DHT22;15921;52.034;20.650;2022-11-20T11:44:19;9.50;73.10
28767;DHT22;15921;52.034;20.650;2022-11-20T11:47:05;9.80;71.10
28767;DHT22;15921;52.034;20.650;2022-11-20T11:49:34;9.70;68.70
28767;DHT22;15921;52.034;20.650;2022-11-20T11:52:18;9.90;67.00
28767;DHT22;15921;52.034;20.650;2022-11-20T11:54:55;10.40;66.80
28767;DHT22;15921;52.034;20.650;2022-11-20T11:57:40;11.30;65.60
28767;DHT22;15921;52.034;20.650;2022-11-20T12:00:19;11.70;62.60
28767;DHT22;15921;52.034;20.650;2022-11-20T12:05:23;11.50;61.90
28767;DHT22;15921;52.034;20.650;2022-11-20T12:10:41;12.60;58.80
28767;DHT22;15921;52.034;20.650;2022-11-20T12:13:32;12.80;58.10
28767;DHT22;15921;52.034;20.650;2022-11-20T12:16:02;12.70;57.10
28767;DHT22;15921;52.034;20.650;2022-11-20T12:18:29;12.20;57.60
28767;DHT22;15921;52.034;20.650;2022-11-20T12:21:20;11.90;58.00
28767;DHT22;15921;52.034;20.650;2022-11-20T12:32:00;13.30;55.40
28767;DHT22;15921;52.034;20.650;2022-11-20T12:37:33;12.90;56.20
28767;DHT22;15921;52.034;20.650;2022-11-20T12:54:43;10.80;58.10
28767;DHT22;15921;52.034;20.650;2022-11-20T13:05:36;10.10;60.10
28767;DHT22;15921;52.034;20.650;2022-11-20T13:08:03;9.20;60.80
28767;DHT22;15921;52.034;20.650;2022-11-20T13:13:26;8.70;63.20
28767;DHT22;15921;52.034;20.650;2022-11-20T13:16:00;9.40;63.80
28767;DHT22;15921;52.034;20.650;2022-11-20T13:18:28;10.70;60.90
28767;DHT22;15921;52.034;20.650;2022-11-20T13:20:55;11.80;58.80
28767;DHT22;15921;52.034;20.650;2022-11-20T13:23:27;12.70;56.90
28767;DHT22;15921;52.034;20.650;2022-11-20T13:26:02;13.10;54.60
28767;DHT22;15921;52.034;20.650;2022-11-20T13:28:30;12.30;53.50
28767;DHT22;15921;52.034;20.650;2022-11-20T13:30:56;11.80;55.80
28767;DHT22;15921;52.034;20.650;2022-11-20T13:33:32;11.30;56.90
28767;DHT22;15921;52.034;20.650;2022-11-20T13:36:06;10.30;57.80
28767;DHT22;15921;52.034;20.650;2022-11-20T13:38:52;9.30;59.60
28767;DHT22;15921;52.034;20.650;2022-11-20T13:41:25;8.60;61.40
28767;DHT22;15921;52.034;20.650;2022-11-20T13:46:42;8.00;64.10
28767;DHT22;15921;52.034;20.650;2022-11-20T13:49:44;8.20;64.50
28767;DHT22;15921;52.034;20.650;2022-11-20T13:52:55;8.40;64.00
28767;DHT22;15921;52.034;20.650;2022-11-20T14:00:44;6.40;67.80
28767;DHT22;15921;52.034;20.650;2022-11-20T14:03:24;5.70;70.50
28767;DHT22;15921;52.034;20.650;2022-11-20T14:06:02;5.40;71.80
28767;DHT22;15921;52.034;20.650;2022-11-20T14:08:41;5.40;72.50
28767;DHT22;15921;52.034;20.650;2022-11-20T14:11:29;5.60;72.90
28767;DHT22;15921;52.034;20.650;2022-11-20T14:13:56;5.80;72.60
28767;DHT22;15921;52.034;20.650;2022-11-20T14:16:23;5.50;72.80
28767;DHT22;15921;52.034;20.650;2022-11-20T14:18:50;5.10;73.60
28767;DHT22;15921;52.034;20.650;2022-11-20T14:21:26;4.70;74.50
28767;DHT22;15921;52.034;20.650;2022-11-20T14:24:11;4.30;75.60
28767;DHT22;15921;52.034;20.650;2022-11-20T14:26:42;3.80;77.20
28767;DHT22;15921;52.034;20.650;2022-11-20T14:29:28;3.40;78.50
28767;DHT22;15921;52.034;20.650;2022-11-20T14:31:55;3.00;79.80
28767;DHT22;15921;52.034;20.650;2022-11-20T14:34:24;2.80;80.90
28767;DHT22;15921;52.034;20.650;2022-11-20T14:36:55;2.50;82.10
28767;DHT22;15921;52.034;20.650;2022-11-20T14:39:40;2.30;83.10
28767;DHT22;15921;52.034;20.650;2022-11-20T14:42:23;2.10;83.90
28767;DHT22;15921;52.034;20.650;2022-11-20T14:44:50;2.00;84.90
28767;DHT22;15921;52.034;20.650;2022-11-20T14:47:23;1.90;85.50
28767;DHT22;15921;52.034;20.650;2022-11-20T14:49:50;1.70;86.20
28767;DHT22;15921;52.034;20.650;2022-11-20T14:52:19;1.60;86.80
28767;DHT22;15921;52.034;20.650;2022-11-20T14:54:47;1.50;87.50
28767;DHT22;15921;52.034;20.650;2022-11-20T14:57:26;1.40;87.90
28767;DHT22;15921;52.034;20.650;2022-11-20T15:00:04;1.30;88.40
28767;DHT22;15921;52.034;20.650;2022-11-20T15:02:30;1.20;88.80
28767;DHT22;15921;52.034;20.650;2022-11-20T15:04:57;1.00;89.30
28767;DHT22;15921;52.034;20.650;2022-11-20T15:07:33;0.90;89.90
28767;DHT22;15921;52.034;20.650;2022-11-20T15:10:01;0.80;90.20
28767;DHT22;15921;52.034;20.650;2022-11-20T15:12:27;0.60;90.50
28767;DHT22;15921;52.034;20.650;2022-11-20T15:14:53;0.40;90.90
28767;DHT22;15921;52.034;20.650;2022-11-20T15:17:18;0.20;91.40
28767;DHT22;15921;52.034;20.650;2022-11-20T15:19:44;0.00;91.70
28767;DHT22;15921;52.034;20.650;2022-11-20T15:22:12;-0.10;91.90
28767;DHT22;15921;52.034;20.650;2022-11-20T15:24:38;-0.20;92.30
28767;DHT22;15921;52.034;20.650;2022-11-20T15:27:04;-0.40;92.60
28767;DHT22;15921;52.034;20.650;2022-11-20T15:29:30;-0.50;93.00
28767;DHT22;15921;52.034;20.650;2022-11-20T15:31:55;-0.60;93.30
28767;DHT22;15921;52.034;20.650;2022-11-20T15:34:21;-0.70;93.60
28767;DHT22;15921;52.034;20.650;2022-11-20T15:36:47;-0.80;93.90
28767;DHT22;15921;52.034;20.650;2022-11-20T15:39:12;-0.90;94.40
28767;DHT22;15921;52.034;20.650;2022-11-20T15:41:39;-1.00;94.70
28767;DHT22;15921;52.034;20.650;2022-11-20T15:44:05;-1.10;95.20
28767;DHT22;15921;52.034;20.650;2022-11-20T15:46:32;-1.20;95.60
28767;DHT22;15921;52.034;20.650;2022-11-20T15:49:02;-1.30;96.30
28767;DHT22;15921;52.034;20.650;2022-11-20T15:51:31;-1.40;97.10
28767;DHT22;15921;52.034;20.650;2022-11-20T15:53:57;-1.40;97.80
28767;DHT22;15921;52.034;20.650;2022-11-20T15:56:23;-1.50;98.80
28767;DHT22;15921;52.034;20.650;2022-11-20T15:58:49;-1.60;99.90
28767;DHT22;15921;52.034;20.650;2022-11-20T16:01:17;-1.70;99.90
28767;DHT22;15921;52.034;20.650;2022-11-20T16:03:44;-1.70;99.90
28767;DHT22;15921;52.034;20.650;2022-11-20T16:06:10;-1.80;99.90
28767;DHT22;15921;52.034;20.650;2022-11-20T16:08:36;-1.90;99.90
28767;DHT22;15921;52.034;20.650;2022-11-20T16:11:02;-1.90;99.90
28767;DHT22;15921;52.034;20.650;2022-11-20T16:13:28;-2.00;99.90
28767;DHT22;15921;52.034;20.650;2022-11-20T16:16:43;-2.10;99.90
28767;DHT22;15921;52.034;20.650;2022-11-20T16:19:11;-2.10;99.90
28767;DHT22;15921;52.034;20.650;2022-11-20T16:21:37;-2.20;99.90
28767;DHT22;15921;52.034;20.650;2022-11-20T16:24:09;-2.20;99.90
28767;DHT22;15921;52.034;20.650;2022-11-20T16:26:36;-2.30;99.90
28767;DHT22;15921;52.034;20.650;2022-11-20T16:29:03;-2.30;99.90
28767;DHT22;15921;52.034;20.650;2022-11-20T16:31:29;-2.30;99.90
28767;DHT22;15921;52.034;20.650;2022-11-20T16:33:57;-2.40;99.90
28767;DHT22;15921;52.034;20.650;2022-11-20T16:36:25;-2.40;99.90
28767;DHT22;15921;52.034;20.650;2022-11-20T16:38:58;-2.50;99.90
28767;DHT22;15921;52.034;20.650;2022-11-20T16:41:26;-2.50;99.90
28767;DHT22;15921;52.034;20.650;2022-11-20T16:43:54;-2.50;99.90
28767;DHT22;15921;52.034;20.650;2022-11-20T16:46:23;-2.50;99.90
28767;DHT22;15921;52.034;20.650;2022-11-20T16:49:05;-2.60;99.90
28767;DHT22;15921;52.034;20.650;2022-11-20T16:51:34;-2.60;99.90
28767;DHT22;15921;52.034;20.650;2022-11-20T16:54:04;-2.70;99.90
28767;DHT22;15921;52.034;20.650;2022-11-20T16:56:30;-2.70;99.90
28767;DHT22;15921;52.034;20.650;2022-11-20T16:58:58;-2.70;99.90
28767;DHT22;15921;52.034;20.650;2022-11-20T17:01:24;-2.70;99.90